sensor_id;sensor_type;location;lat;lon;timestamp;pressure;altitude;pressure_sealevel;temperature;humidity
49943;BME280;36011;53.362;58.948;2023-04-06T00:00:03;96419.47;;;6.22;43.57
49943;BME280;36011;53.362;58.948;2023-04-06T00:03:09;96411.22;;;6.29;43.62
49943;BME280;36011;53.362;58.948;2023-04-06T00:06:15;96408.03;;;6.24;43.59
49943;BME280;36011;53.362;58.948;2023-04-06T00:09:19;96405.81;;;6.17;43.85
49943;BME280;36011;53.362;58.948;2023-04-06T00:12:23;96407.25;;;6.06;44.37
49943;BME280;36011;53.362;58.948;2023-04-06T00:15:29;96405.84;;;6.01;44.12
49943;BME280;36011;53.362;58.948;2023-04-06T00:18:35;96402.63;;;5.96;44.27
49943;BME280;36011;53.362;58.948;2023-04-06T00:21:40;96409.97;;;5.88;44.93
49943;BME280;36011;53.362;58.948;2023-04-06T00:24:45;96396.50;;;5.79;45.00
49943;BME280;36011;53.362;58.948;2023-04-06T00:27:48;96387.38;;;5.71;45.19
49943;BME280;36011;53.362;58.948;2023-04-06T00:30:53;96397.81;;;5.55;46.06
49943;BME280;36011;53.362;58.948;2023-04-06T00:34:01;96404.59;;;5.42;46.25
49943;BME280;36011;53.362;58.948;2023-04-06T00:37:05;96398.56;;;5.24;46.87
49943;BME280;36011;53.362;58.948;2023-04-06T00:40:08;96397.16;;;5.16;46.83
49943;BME280;36011;53.362;58.948;2023-04-06T00:43:16;96392.56;;;5.22;46.65
49943;BME280;36011;53.362;58.948;2023-04-06T00:46:21;96388.81;;;5.27;46.71
49943;BME280;36011;53.362;58.948;2023-04-06T00:49:26;96394.03;;;5.27;46.50
49943;BME280;36011;53.362;58.948;2023-04-06T00:52:31;96399.56;;;5.21;46.57
49943;BME280;36011;53.362;58.948;2023-04-06T00:55:36;96395.09;;;5.23;46.69
49943;BME280;36011;53.362;58.948;2023-04-06T00:58:44;96402.28;;;5.35;46.10
49943;BME280;36011;53.362;58.948;2023-04-06T01:01:49;96393.53;;;5.36;45.61
49943;BME280;36011;53.362;58.948;2023-04-06T01:04:55;96393.06;;;5.46;45.71
49943;BME280;36011;53.362;58.948;2023-04-06T01:07:59;96393.34;;;5.57;45.18
49943;BME280;36011;53.362;58.948;2023-04-06T01:11:04;96389.00;;;5.73;44.88
49943;BME280;36011;53.362;58.948;2023-04-06T01:14:08;96391.28;;;5.79;45.03
49943;BME280;36011;53.362;58.948;2023-04-06T01:17:13;96395.31;;;5.69;45.69
49943;BME280;36011;53.362;58.948;2023-04-06T01:20:21;96388.28;;;5.54;46.03
49943;BME280;36011;53.362;58.948;2023-04-06T01:23:27;96391.53;;;5.42;46.20
49943;BME280;36011;53.362;58.948;2023-04-06T01:26:32;96388.03;;;5.25;46.55
49943;BME280;36011;53.362;58.948;2023-04-06T01:29:38;96395.72;;;5.11;46.83
49943;BME280;36011;53.362;58.948;2023-04-06T01:32:45;96386.13;;;4.94;47.30
49943;BME280;36011;53.362;58.948;2023-04-06T01:35:51;96383.91;;;4.86;47.26
49943;BME280;36011;53.362;58.948;2023-04-06T01:38:55;96384.53;;;4.74;47.81
49943;BME280;36011;53.362;58.948;2023-04-06T01:42:01;96390.50;;;4.76;47.55
49943;BME280;36011;53.362;58.948;2023-04-06T01:45:05;96384.53;;;4.74;47.93
49943;BME280;36011;53.362;58.948;2023-04-06T01:48:11;96391.41;;;4.75;47.93
49943;BME280;36011;53.362;58.948;2023-04-06T01:51:17;96390.56;;;4.75;47.82
49943;BME280;36011;53.362;58.948;2023-04-06T01:54:22;96393.88;;;4.78;47.56
49943;BME280;36011;53.362;58.948;2023-04-06T01:57:27;96385.22;;;4.78;47.61
49943;BME280;36011;53.362;58.948;2023-04-06T02:00:31;96388.06;;;4.73;47.73
49943;BME280;36011;53.362;58.948;2023-04-06T02:03:37;96396.88;;;4.70;48.25
49943;BME280;36011;53.362;58.948;2023-04-06T02:06:42;96396.63;;;4.75;48.13
49943;BME280;36011;53.362;58.948;2023-04-06T02:09:47;96395.47;;;4.81;48.27
49943;BME280;36011;53.362;58.948;2023-04-06T02:12:54;96403.09;;;4.85;48.14
49943;BME280;36011;53.362;58.948;2023-04-06T02:15:59;96390.06;;;4.85;48.39
49943;BME280;36011;53.362;58.948;2023-04-06T02:19:06;96391.72;;;4.86;48.73
49943;BME280;36011;53.362;58.948;2023-04-06T02:22:14;96382.06;;;4.88;48.43
49943;BME280;36011;53.362;58.948;2023-04-06T02:25:20;96383.75;;;4.89;48.23
49943;BME280;36011;53.362;58.948;2023-04-06T02:28:26;96386.19;;;4.92;48.25
49943;BME280;36011;53.362;58.948;2023-04-06T02:31:30;96390.50;;;4.93;48.24
49943;BME280;36011;53.362;58.948;2023-04-06T02:34:36;96386.13;;;4.94;48.39
49943;BME280;36011;53.362;58.948;2023-04-06T02:37:41;96395.25;;;5.03;47.93
49943;BME280;36011;53.362;58.948;2023-04-06T02:40:46;96386.38;;;5.07;47.80
49943;BME280;36011;53.362;58.948;2023-04-06T02:43:51;96398.41;;;5.27;47.73
49943;BME280;36011;53.362;58.948;2023-04-06T02:46:55;96398.97;;;5.49;46.94
49943;BME280;36011;53.362;58.948;2023-04-06T02:49:59;96393.78;;;5.65;46.94
49943;BME280;36011;53.362;58.948;2023-04-06T02:53:06;96389.44;;;5.81;46.25
49943;BME280;36011;53.362;58.948;2023-04-06T02:56:11;96394.84;;;5.94;46.35
49943;BME280;36011;53.362;58.948;2023-04-06T02:59:16;96395.97;;;6.06;45.96
49943;BME280;36011;53.362;58.948;2023-04-06T03:02:19;96395.91;;;6.23;45.80
49943;BME280;36011;53.362;58.948;2023-04-06T03:05:25;96397.47;;;6.42;45.55
49943;BME280;36011;53.362;58.948;2023-04-06T03:08:32;96395.16;;;6.67;44.71
49943;BME280;36011;53.362;58.948;2023-04-06T03:11:37;96394.31;;;6.83;44.47
49943;BME280;36011;53.362;58.948;2023-04-06T03:14:42;96396.84;;;6.98;44.34
49943;BME280;36011;53.362;58.948;2023-04-06T03:17:46;96403.19;;;7.25;43.82
49943;BME280;36011;53.362;58.948;2023-04-06T03:20:51;96394.78;;;7.34;44.13
49943;BME280;36011;53.362;58.948;2023-04-06T03:23:57;96401.63;;;7.51;43.88
49943;BME280;36011;53.362;58.948;2023-04-06T03:27:05;96406.59;;;7.70;43.37
49943;BME280;36011;53.362;58.948;2023-04-06T03:30:13;96394.63;;;7.80;43.29
49943;BME280;36011;53.362;58.948;2023-04-06T03:33:18;96391.72;;;7.99;43.06
49943;BME280;36011;53.362;58.948;2023-04-06T03:36:22;96395.13;;;8.28;43.20
49943;BME280;36011;53.362;58.948;2023-04-06T03:39:27;96396.59;;;8.32;43.06
49943;BME280;36011;53.362;58.948;2023-04-06T03:42:34;96397.25;;;8.50;42.91
49943;BME280;36011;53.362;58.948;2023-04-06T03:45:40;96391.84;;;8.66;42.92
49943;BME280;36011;53.362;58.948;2023-04-06T03:48:43;96387.91;;;8.86;42.54
49943;BME280;36011;53.362;58.948;2023-04-06T03:51:49;96389.44;;;9.03;42.41
49943;BME280;36011;53.362;58.948;2023-04-06T03:54:55;96395.06;;;9.24;42.06
49943;BME280;36011;53.362;58.948;2023-04-06T03:57:59;96387.38;;;9.33;42.40
49943;BME280;36011;53.362;58.948;2023-04-06T04:01:04;96382.88;;;9.35;42.27
49943;BME280;36011;53.362;58.948;2023-04-06T04:04:10;96384.66;;;9.48;42.37
49943;BME280;36011;53.362;58.948;2023-04-06T04:07:15;96375.41;;;9.67;42.15
49943;BME280;36011;53.362;58.948;2023-04-06T04:10:20;96376.66;;;9.87;41.82
49943;BME280;36011;53.362;58.948;2023-04-06T04:13:23;96373.88;;;10.02;41.66
49943;BME280;36011;53.362;58.948;2023-04-06T04:16:29;96379.13;;;10.15;41.62
49943;BME280;36011;53.362;58.948;2023-04-06T04:19:34;96383.63;;;10.25;41.48
49943;BME280;36011;53.362;58.948;2023-04-06T04:22:40;96373.94;;;10.39;41.36
49943;BME280;36011;53.362;58.948;2023-04-06T04:25:44;96374.50;;;10.55;40.27
49943;BME280;36011;53.362;58.948;2023-04-06T04:28:50;96370.53;;;10.73;39.66
49943;BME280;36011;53.362;58.948;2023-04-06T04:31:55;96365.38;;;10.96;38.94
49943;BME280;36011;53.362;58.948;2023-04-06T04:35:02;96365.44;;;11.18;37.99
49943;BME280;36011;53.362;58.948;2023-04-06T04:38:06;96367.16;;;11.42;37.15
49943;BME280;36011;53.362;58.948;2023-04-06T04:41:14;96362.75;;;11.65;36.15
49943;BME280;36011;53.362;58.948;2023-04-06T04:44:18;96359.44;;;11.85;35.63
49943;BME280;36011;53.362;58.948;2023-04-06T04:47:23;96366.03;;;12.02;35.23
49943;BME280;36011;53.362;58.948;2023-04-06T04:50:29;96355.94;;;12.19;34.75
49943;BME280;36011;53.362;58.948;2023-04-06T04:53:34;96356.41;;;12.35;34.62
49943;BME280;36011;53.362;58.948;2023-04-06T04:56:39;96359.09;;;12.56;34.01
49943;BME280;36011;53.362;58.948;2023-04-06T04:59:44;96355.69;;;12.76;33.41
49943;BME280;36011;53.362;58.948;2023-04-06T05:02:50;96360.75;;;13.00;32.90
49943;BME280;36011;53.362;58.948;2023-04-06T05:05:56;96360.34;;;13.16;32.70
49943;BME280;36011;53.362;58.948;2023-04-06T05:08:59;96359.63;;;13.35;32.18
49943;BME280;36011;53.362;58.948;2023-04-06T05:12:06;96358.78;;;13.56;31.71
49943;BME280;36011;53.362;58.948;2023-04-06T05:15:11;96352.78;;;13.75;31.15
49943;BME280;36011;53.362;58.948;2023-04-06T05:18:18;96360.69;;;13.96;30.41
49943;BME280;36011;53.362;58.948;2023-04-06T05:21:25;96339.81;;;14.02;30.16
49943;BME280;36011;53.362;58.948;2023-04-06T05:24:34;96355.28;;;14.57;29.29
49943;BME280;36011;53.362;58.948;2023-04-06T05:27:38;96366.25;;;18.90;24.77
49943;BME280;36011;53.362;58.948;2023-04-06T05:30:44;96371.25;;;24.60;19.15
49943;BME280;36011;53.362;58.948;2023-04-06T05:33:49;96369.19;;;29.21;15.56
49943;BME280;36011;53.362;58.948;2023-04-06T05:36:54;96381.91;;;32.96;13.35
49943;BME280;36011;53.362;58.948;2023-04-06T05:39:59;96378.25;;;35.79;11.21
49943;BME280;36011;53.362;58.948;2023-04-06T05:43:03;96379.00;;;38.25;9.59
49943;BME280;36011;53.362;58.948;2023-04-06T05:46:08;96390.09;;;40.02;8.57
49943;BME280;36011;53.362;58.948;2023-04-06T05:49:14;96381.53;;;41.38;7.76
49943;BME280;36011;53.362;58.948;2023-04-06T05:52:20;96377.84;;;42.69;7.19
49943;BME280;36011;53.362;58.948;2023-04-06T05:55:24;96383.41;;;43.84;6.18
49943;BME280;36011;53.362;58.948;2023-04-06T05:58:30;96380.22;;;44.64;5.61
49943;BME280;36011;53.362;58.948;2023-04-06T06:01:35;96385.53;;;45.54;5.09
49943;BME280;36011;53.362;58.948;2023-04-06T06:04:39;96385.38;;;46.68;4.43
49943;BME280;36011;53.362;58.948;2023-04-06T06:07:43;96378.81;;;47.46;4.37
49943;BME280;36011;53.362;58.948;2023-04-06T06:10:48;96380.97;;;48.18;3.78
49943;BME280;36011;53.362;58.948;2023-04-06T06:13:54;96380.72;;;48.83;3.69
49943;BME280;36011;53.362;58.948;2023-04-06T06:17:00;96387.97;;;49.51;3.23
49943;BME280;36011;53.362;58.948;2023-04-06T06:20:03;96380.53;;;49.74;3.15
49943;BME280;36011;53.362;58.948;2023-04-06T06:23:11;96380.13;;;50.30;2.90
49943;BME280;36011;53.362;58.948;2023-04-06T06:26:17;96379.75;;;50.97;2.52
49943;BME280;36011;53.362;58.948;2023-04-06T06:29:22;96376.44;;;51.38;2.37
49943;BME280;36011;53.362;58.948;2023-04-06T06:32:28;96368.34;;;51.33;2.28
49943;BME280;36011;53.362;58.948;2023-04-06T06:35:33;96365.63;;;51.67;2.19
49943;BME280;36011;53.362;58.948;2023-04-06T06:38:40;96375.84;;;52.12;1.83
49943;BME280;36011;53.362;58.948;2023-04-06T06:41:43;96360.88;;;51.44;2.16
49943;BME280;36011;53.362;58.948;2023-04-06T06:44:48;96362.22;;;52.11;2.15
49943;BME280;36011;53.362;58.948;2023-04-06T06:47:51;96365.97;;;53.59;1.41
49943;BME280;36011;53.362;58.948;2023-04-06T06:50:57;96356.78;;;51.64;2.24
49943;BME280;36011;53.362;58.948;2023-04-06T06:54:02;96340.38;;;48.96;2.63
49943;BME280;36011;53.362;58.948;2023-04-06T06:57:07;96327.28;;;45.16;3.97
49943;BME280;36011;53.362;58.948;2023-04-06T07:00:10;96312.19;;;42.21;4.98
49943;BME280;36011;53.362;58.948;2023-04-06T07:03:16;96327.31;;;43.52;4.68
49943;BME280;36011;53.362;58.948;2023-04-06T07:06:19;96318.75;;;46.50;3.72
49943;BME280;36011;53.362;58.948;2023-04-06T07:09:25;96343.16;;;48.64;3.03
49943;BME280;36011;53.362;58.948;2023-04-06T07:12:31;96327.41;;;50.32;2.39
49943;BME280;36011;53.362;58.948;2023-04-06T07:15:36;96340.59;;;51.01;1.90
49943;BME280;36011;53.362;58.948;2023-04-06T07:18:40;96333.69;;;50.95;2.06
49943;BME280;36011;53.362;58.948;2023-04-06T07:21:45;96328.22;;;51.29;1.88
49943;BME280;36011;53.362;58.948;2023-04-06T07:24:50;96336.81;;;51.39;2.08
49943;BME280;36011;53.362;58.948;2023-04-06T07:27:56;96347.91;;;51.59;1.89
49943;BME280;36011;53.362;58.948;2023-04-06T07:31:00;96343.47;;;52.18;1.75
49943;BME280;36011;53.362;58.948;2023-04-06T07:34:04;96345.34;;;52.85;1.90
49943;BME280;36011;53.362;58.948;2023-04-06T07:37:08;96342.66;;;53.62;1.31
49943;BME280;36011;53.362;58.948;2023-04-06T07:40:13;96349.66;;;53.90;1.36
49943;BME280;36011;53.362;58.948;2023-04-06T07:43:21;96348.19;;;54.17;1.48
49943;BME280;36011;53.362;58.948;2023-04-06T07:46:30;96339.00;;;54.42;1.20
49943;BME280;36011;53.362;58.948;2023-04-06T07:49:35;96342.25;;;54.51;1.43
49943;BME280;36011;53.362;58.948;2023-04-06T07:52:41;96339.81;;;54.42;1.08
49943;BME280;36011;53.362;58.948;2023-04-06T07:55:46;96334.19;;;54.39;1.47
49943;BME280;36011;53.362;58.948;2023-04-06T07:58:50;96325.97;;;53.98;0.93
49943;BME280;36011;53.362;58.948;2023-04-06T08:01:56;96324.19;;;53.61;1.16
49943;BME280;36011;53.362;58.948;2023-04-06T08:05:10;96308.06;;;50.27;2.02
49943;BME280;36011;53.362;58.948;2023-04-06T08:08:13;96292.47;;;46.72;3.23
49943;BME280;36011;53.362;58.948;2023-04-06T08:11:19;96299.84;;;47.42;3.27
49943;BME280;36011;53.362;58.948;2023-04-06T08:14:24;96302.53;;;47.79;2.86
49943;BME280;36011;53.362;58.948;2023-04-06T08:17:40;96291.28;;;48.47;2.59
49943;BME280;36011;53.362;58.948;2023-04-06T08:21:04;96297.00;;;46.89;3.03
49943;BME280;36011;53.362;58.948;2023-04-06T08:24:09;96282.94;;;42.69;4.23
49943;BME280;36011;53.362;58.948;2023-04-06T08:27:13;96275.66;;;39.39;5.49
49943;BME280;36011;53.362;58.948;2023-04-06T08:30:18;96263.78;;;37.36;6.40
49943;BME280;36011;53.362;58.948;2023-04-06T08:33:23;96265.47;;;35.56;7.21
49943;BME280;36011;53.362;58.948;2023-04-06T08:36:28;96264.88;;;33.65;8.08
49943;BME280;36011;53.362;58.948;2023-04-06T08:39:38;96264.78;;;32.35;9.03
49943;BME280;36011;53.362;58.948;2023-04-06T08:42:52;96266.13;;;31.76;8.76
49943;BME280;36011;53.362;58.948;2023-04-06T08:45:59;96260.66;;;30.80;9.65
49943;BME280;36011;53.362;58.948;2023-04-06T08:49:04;96256.72;;;30.76;9.32
49943;BME280;36011;53.362;58.948;2023-04-06T08:52:11;96270.72;;;31.25;9.33
49943;BME280;36011;53.362;58.948;2023-04-06T08:55:15;96266.41;;;32.75;8.78
49943;BME280;36011;53.362;58.948;2023-04-06T08:58:21;96270.06;;;33.07;8.56
49943;BME280;36011;53.362;58.948;2023-04-06T09:01:30;96258.41;;;32.90;8.64
49943;BME280;36011;53.362;58.948;2023-04-06T09:04:38;96266.31;;;33.46;8.53
49943;BME280;36011;53.362;58.948;2023-04-06T09:07:46;96262.34;;;32.99;8.62
49943;BME280;36011;53.362;58.948;2023-04-06T09:10:51;96252.34;;;32.00;8.76
49943;BME280;36011;53.362;58.948;2023-04-06T09:13:57;96265.91;;;31.16;9.31
49943;BME280;36011;53.362;58.948;2023-04-06T09:17:02;96259.44;;;30.48;10.21
49943;BME280;36011;53.362;58.948;2023-04-06T09:20:08;96253.47;;;29.63;10.46
49943;BME280;36011;53.362;58.948;2023-04-06T09:23:19;96255.22;;;28.74;10.86
49943;BME280;36011;53.362;58.948;2023-04-06T09:26:27;96251.16;;;27.91;11.59
49943;BME280;36011;53.362;58.948;2023-04-06T09:29:32;96250.41;;;27.34;11.84
49943;BME280;36011;53.362;58.948;2023-04-06T09:32:55;96252.44;;;26.81;12.05
49943;BME280;36011;53.362;58.948;2023-04-06T09:36:01;96250.50;;;26.43;12.61
49943;BME280;36011;53.362;58.948;2023-04-06T09:39:06;96258.78;;;26.49;12.50
49943;BME280;36011;53.362;58.948;2023-04-06T09:42:25;96260.78;;;26.67;12.59
49943;BME280;36011;53.362;58.948;2023-04-06T09:45:30;96258.28;;;26.20;13.20
49943;BME280;36011;53.362;58.948;2023-04-06T09:48:36;96258.41;;;26.83;12.46
49943;BME280;36011;53.362;58.948;2023-04-06T09:51:49;96260.34;;;28.63;11.65
49943;BME280;36011;53.362;58.948;2023-04-06T09:55:04;96258.53;;;29.06;11.23
49943;BME280;36011;53.362;58.948;2023-04-06T09:58:20;96261.41;;;29.23;11.21
49943;BME280;36011;53.362;58.948;2023-04-06T10:01:33;96262.06;;;29.84;11.02
49943;BME280;36011;53.362;58.948;2023-04-06T10:08:24;96268.09;;;31.64;9.84
49943;BME280;36011;53.362;58.948;2023-04-06T10:11:30;96260.97;;;31.13;10.14
49943;BME280;36011;53.362;58.948;2023-04-06T10:14:36;96257.59;;;30.13;10.58
49943;BME280;36011;53.362;58.948;2023-04-06T10:17:47;96251.78;;;29.39;10.99
49943;BME280;36011;53.362;58.948;2023-04-06T10:21:04;96261.44;;;29.58;10.99
49943;BME280;36011;53.362;58.948;2023-04-06T10:24:13;96258.06;;;29.63;10.98
49943;BME280;36011;53.362;58.948;2023-04-06T10:27:16;96251.31;;;29.53;11.26
49943;BME280;36011;53.362;58.948;2023-04-06T10:30:20;96263.94;;;30.71;10.75
49943;BME280;36011;53.362;58.948;2023-04-06T10:33:24;96265.97;;;32.61;9.58
49943;BME280;36011;53.362;58.948;2023-04-06T10:36:34;96264.34;;;31.99;9.97
49943;BME280;36011;53.362;58.948;2023-04-06T10:39:47;96262.91;;;30.60;10.78
49943;BME280;36011;53.362;58.948;2023-04-06T10:42:53;96265.25;;;29.69;11.22
49943;BME280;36011;53.362;58.948;2023-04-06T10:46:01;96253.25;;;30.24;10.78
49943;BME280;36011;53.362;58.948;2023-04-06T10:49:14;96254.84;;;32.24;9.73
49943;BME280;36011;53.362;58.948;2023-04-06T10:52:19;96267.25;;;34.31;8.61
49943;BME280;36011;53.362;58.948;2023-04-06T10:55:25;96260.41;;;33.91;8.90
49943;BME280;36011;53.362;58.948;2023-04-06T10:58:31;96265.88;;;32.34;9.96
49943;BME280;36011;53.362;58.948;2023-04-06T11:01:35;96264.09;;;30.64;10.94
49943;BME280;36011;53.362;58.948;2023-04-06T11:04:40;96260.28;;;29.54;11.43
49943;BME280;36011;53.362;58.948;2023-04-06T11:07:48;96247.88;;;28.62;11.73
49943;BME280;36011;53.362;58.948;2023-04-06T11:11:14;96251.84;;;27.61;12.52
49943;BME280;36011;53.362;58.948;2023-04-06T11:14:24;96248.47;;;26.32;13.08
49943;BME280;36011;53.362;58.948;2023-04-06T11:17:37;96248.66;;;25.39;14.07
49943;BME280;36011;53.362;58.948;2023-04-06T11:20:48;96249.00;;;24.83;14.48
49943;BME280;36011;53.362;58.948;2023-04-06T11:27:29;96244.97;;;23.69;15.20
49943;BME280;36011;53.362;58.948;2023-04-06T11:30:36;96250.94;;;23.15;15.53
49943;BME280;36011;53.362;58.948;2023-04-06T11:33:42;96255.13;;;22.81;15.96
49943;BME280;36011;53.362;58.948;2023-04-06T11:36:49;96243.00;;;22.64;16.42
49943;BME280;36011;53.362;58.948;2023-04-06T11:39:58;96258.31;;;22.70;16.21
49943;BME280;36011;53.362;58.948;2023-04-06T11:43:05;96255.28;;;22.95;16.22
49943;BME280;36011;53.362;58.948;2023-04-06T11:46:18;96256.81;;;23.25;15.78
49943;BME280;36011;53.362;58.948;2023-04-06T11:49:32;96255.72;;;23.41;15.89
49943;BME280;36011;53.362;58.948;2023-04-06T11:52:42;96258.69;;;23.53;15.56
49943;BME280;36011;53.362;58.948;2023-04-06T11:55:47;96245.88;;;23.55;15.40
49943;BME280;36011;53.362;58.948;2023-04-06T11:58:58;96254.56;;;23.79;15.18
49943;BME280;36011;53.362;58.948;2023-04-06T12:02:05;96255.13;;;24.50;14.97
49943;BME280;36011;53.362;58.948;2023-04-06T12:05:14;96255.84;;;24.31;14.78
49943;BME280;36011;53.362;58.948;2023-04-06T12:08:19;96258.19;;;23.43;15.55
49943;BME280;36011;53.362;58.948;2023-04-06T12:11:24;96250.50;;;22.90;16.09
49943;BME280;36011;53.362;58.948;2023-04-06T12:14:30;96258.69;;;22.67;16.13
49943;BME280;36011;53.362;58.948;2023-04-06T12:17:34;96255.63;;;22.49;16.39
49943;BME280;36011;53.362;58.948;2023-04-06T12:20:37;96253.81;;;22.34;16.62
49943;BME280;36011;53.362;58.948;2023-04-06T12:23:42;96252.63;;;22.22;16.79
49943;BME280;36011;53.362;58.948;2023-04-06T12:26:46;96249.88;;;22.01;16.72
49943;BME280;36011;53.362;58.948;2023-04-06T12:29:49;96256.59;;;21.96;16.95
49943;BME280;36011;53.362;58.948;2023-04-06T12:32:53;96248.72;;;22.10;16.93
49943;BME280;36011;53.362;58.948;2023-04-06T12:36:00;96256.56;;;22.41;16.39
49943;BME280;36011;53.362;58.948;2023-04-06T12:39:04;96251.84;;;22.79;16.42
49943;BME280;36011;53.362;58.948;2023-04-06T12:42:07;96243.28;;;22.91;16.03
49943;BME280;36011;53.362;58.948;2023-04-06T12:45:12;96248.13;;;23.23;15.83
49943;BME280;36011;53.362;58.948;2023-04-06T12:48:18;96246.63;;;23.42;15.83
49943;BME280;36011;53.362;58.948;2023-04-06T12:51:24;96243.19;;;23.55;15.83
49943;BME280;36011;53.362;58.948;2023-04-06T12:54:29;96249.06;;;23.37;15.88
49943;BME280;36011;53.362;58.948;2023-04-06T12:57:33;96252.59;;;22.73;16.34
49943;BME280;36011;53.362;58.948;2023-04-06T13:00:37;96251.78;;;22.22;16.83
49943;BME280;36011;53.362;58.948;2023-04-06T13:03:43;96249.31;;;21.61;17.39
49943;BME280;36011;53.362;58.948;2023-04-06T13:06:47;96254.66;;;21.23;17.90
49943;BME280;36011;53.362;58.948;2023-04-06T13:09:54;96248.50;;;20.99;18.34
49943;BME280;36011;53.362;58.948;2023-04-06T13:12:58;96251.03;;;20.78;18.62
49943;BME280;36011;53.362;58.948;2023-04-06T13:16:06;96253.03;;;20.45;18.89
49943;BME280;36011;53.362;58.948;2023-04-06T13:19:12;96247.69;;;20.13;19.27
49943;BME280;36011;53.362;58.948;2023-04-06T13:22:16;96252.81;;;19.84;19.87
49943;BME280;36011;53.362;58.948;2023-04-06T13:25:21;96257.19;;;19.60;19.89
49943;BME280;36011;53.362;58.948;2023-04-06T13:28:24;96255.25;;;19.29;20.07
49943;BME280;36011;53.362;58.948;2023-04-06T13:31:30;96258.25;;;19.18;20.35
49943;BME280;36011;53.362;58.948;2023-04-06T13:34:33;96269.59;;;19.04;20.83
49943;BME280;36011;53.362;58.948;2023-04-06T13:37:36;96272.25;;;18.88;21.14
49943;BME280;36011;53.362;58.948;2023-04-06T13:40:41;96266.91;;;18.71;21.02
49943;BME280;36011;53.362;58.948;2023-04-06T13:43:45;96269.22;;;18.66;21.11
49943;BME280;36011;53.362;58.948;2023-04-06T13:46:50;96267.22;;;18.52;21.14
49943;BME280;36011;53.362;58.948;2023-04-06T13:49:53;96270.19;;;18.40;21.29
49943;BME280;36011;53.362;58.948;2023-04-06T13:52:58;96272.50;;;18.35;21.13
49943;BME280;36011;53.362;58.948;2023-04-06T13:56:02;96273.16;;;18.29;21.74
49943;BME280;36011;53.362;58.948;2023-04-06T13:59:08;96271.94;;;18.15;22.02
49943;BME280;36011;53.362;58.948;2023-04-06T14:02:11;96271.53;;;18.02;22.14
49943;BME280;36011;53.362;58.948;2023-04-06T14:05:15;96285.78;;;17.85;22.58
49943;BME280;36011;53.362;58.948;2023-04-06T14:08:18;96272.88;;;17.72;22.65
49943;BME280;36011;53.362;58.948;2023-04-06T14:11:22;96278.47;;;17.61;22.78
49943;BME280;36011;53.362;58.948;2023-04-06T14:14:28;96278.38;;;17.44;22.86
49943;BME280;36011;53.362;58.948;2023-04-06T14:17:32;96276.13;;;17.32;22.93
49943;BME280;36011;53.362;58.948;2023-04-06T14:20:37;96292.00;;;17.23;23.04
49943;BME280;36011;53.362;58.948;2023-04-06T14:23:42;96274.59;;;17.03;23.37
49943;BME280;36011;53.362;58.948;2023-04-06T14:26:46;96286.16;;;16.94;23.42
49943;BME280;36011;53.362;58.948;2023-04-06T14:29:51;96286.06;;;16.86;23.43
49943;BME280;36011;53.362;58.948;2023-04-06T14:32:59;96290.47;;;16.77;23.47
49943;BME280;36011;53.362;58.948;2023-04-06T14:36:03;96286.06;;;16.68;23.50
49943;BME280;36011;53.362;58.948;2023-04-06T14:39:09;96291.72;;;16.55;23.79
49943;BME280;36011;53.362;58.948;2023-04-06T14:42:13;96286.09;;;16.40;23.76
49943;BME280;36011;53.362;58.948;2023-04-06T14:45:19;96296.03;;;16.38;23.90
49943;BME280;36011;53.362;58.948;2023-04-06T14:48:25;96288.75;;;16.22;24.02
49943;BME280;36011;53.362;58.948;2023-04-06T14:51:37;96297.84;;;16.20;24.32
49943;BME280;36011;53.362;58.948;2023-04-06T14:54:42;96306.22;;;16.15;24.40
49943;BME280;36011;53.362;58.948;2023-04-06T14:57:47;96304.00;;;16.10;24.33
49943;BME280;36011;53.362;58.948;2023-04-06T15:01:01;96322.44;;;16.12;24.52
49943;BME280;36011;53.362;58.948;2023-04-06T15:04:11;96314.91;;;16.07;24.77
49943;BME280;36011;53.362;58.948;2023-04-06T15:07:15;96322.63;;;16.01;24.93
49943;BME280;36011;53.362;58.948;2023-04-06T15:10:20;96323.88;;;16.06;24.98
49943;BME280;36011;53.362;58.948;2023-04-06T15:13:28;96336.16;;;16.07;25.33
49943;BME280;36011;53.362;58.948;2023-04-06T15:16:33;96329.78;;;16.00;25.53
49943;BME280;36011;53.362;58.948;2023-04-06T15:19:38;96334.63;;;16.05;25.82
49943;BME280;36011;53.362;58.948;2023-04-06T15:22:41;96337.56;;;16.02;25.84
49943;BME280;36011;53.362;58.948;2023-04-06T15:25:45;96339.84;;;15.97;26.01
49943;BME280;36011;53.362;58.948;2023-04-06T15:28:50;96342.22;;;15.90;26.08
49943;BME280;36011;53.362;58.948;2023-04-06T15:31:54;96357.72;;;15.94;26.27
49943;BME280;36011;53.362;58.948;2023-04-06T15:34:59;96363.16;;;15.93;26.22
49943;BME280;36011;53.362;58.948;2023-04-06T15:38:03;96371.13;;;15.93;26.32
49943;BME280;36011;53.362;58.948;2023-04-06T15:41:10;96367.78;;;15.91;26.08
49943;BME280;36011;53.362;58.948;2023-04-06T15:44:17;96368.34;;;15.85;26.23
49943;BME280;36011;53.362;58.948;2023-04-06T15:47:22;96388.91;;;15.83;26.37
49943;BME280;36011;53.362;58.948;2023-04-06T15:50:26;96389.88;;;15.82;26.24
49943;BME280;36011;53.362;58.948;2023-04-06T15:53:31;96383.91;;;15.70;26.29
49943;BME280;36011;53.362;58.948;2023-04-06T15:56:37;96385.13;;;15.66;26.18
49943;BME280;36011;53.362;58.948;2023-04-06T15:59:42;96381.91;;;15.62;26.25
49943;BME280;36011;53.362;58.948;2023-04-06T16:02:46;96385.13;;;15.56;26.28
49943;BME280;36011;53.362;58.948;2023-04-06T16:05:51;96390.19;;;15.40;26.41
49943;BME280;36011;53.362;58.948;2023-04-06T16:08:56;96401.34;;;15.34;26.57
49943;BME280;36011;53.362;58.948;2023-04-06T16:12:02;96399.13;;;15.29;26.68
49943;BME280;36011;53.362;58.948;2023-04-06T16:15:06;96407.22;;;15.27;27.04
49943;BME280;36011;53.362;58.948;2023-04-06T16:18:11;96405.84;;;15.23;27.07
49943;BME280;36011;53.362;58.948;2023-04-06T16:21:16;96402.75;;;15.18;27.44
49943;BME280;36011;53.362;58.948;2023-04-06T16:24:21;96403.31;;;15.12;27.84